Terminal Aerodrome Forecast
Issued by NWS Upton, NY

Home | Current Version | Previous Version | Text Only | Print | Product List | Glossary On
Versions: 1 2 3 4 5 6 7 8 9 10 11 12 13 14 15 16 17 18 19 20 21 22 23 24 25 26 27 28 29 30 31 32 33 34 35 36 37 38 39
612
FTUS41 KOKX 211543 AAB
TAFISP
TAF AMD
KISP 211543Z 2116/2212 33007KT P6SM FEW035
     FM211900 26011G17KT P6SM FEW050
     FM212200 24011KT P6SM FEW060
     FM220300 27005KT P6SM SCT060=

USA.gov is the U.S. government's official web portal to all federal, state and local government web resources and services.